Bodega Marine Reserve, California Weather observations

Data are for 10 minute period ending at time listed.
 Day   Time   Solar   Ave.   Ave.  Ave.  Vector  Max.   Baro.   Total    
  of    of     Rad.   Air    Rel.  Wind   Wind   Wind  Press.  Precip.   
Year   Day            Temp.  Hum.  Speed  Dir.   Gust                    
2015   (PST)  Kw/m2    F      %     mph   deg.    mph    mb.     in.     
-------------------------------------------------------------------------
 238   15:10   0.56   62.0    80   13.8   312    18.1   1014.2    0.00 
 238   15:20   0.58   63.0    78   15.7   305    20.4   1014.2    0.00 
 238   15:30   0.53   63.9    76   15.8   311    21.9   1014.2    0.00 
 238   15:40   0.46   63.7    77   16.7   305    20.6   1013.9    0.00 
 238   15:50   0.46   63.4    78   17.3   304    21.9   1013.9    0.00 
 238   16:00   0.19   63.6    78   17.0   303    21.5   1013.9    0.00 
 238   16:10   0.30   63.9    78   16.5   306    21.9   1013.9    0.00 
 238   16:20   0.40   63.8    78   16.5   304    20.6   1013.5    0.00 
 238   16:30   0.39   63.4    79   18.8   304    23.5   1013.5    0.00 
 238   16:40   0.29   63.1    79   18.6   306    24.6   1013.5    0.00 
 238   16:50   0.33   63.0    80   18.4   306    22.4   1013.2    0.00 
 238   17:00   0.30   62.8    80   17.5   306    22.6   1013.2    0.00 
 238   17:10   0.26   62.1    81   18.6   304    24.1   1013.2    0.00 
 238   17:20   0.11   62.1    81   16.4   308    22.7   1013.2    0.00 
 238   17:30   0.05   61.5    82   16.6   306    20.5   1013.2    0.00 
 238   17:40   0.15   60.9    84   17.6   302    23.3   1013.2    0.00 
 238   17:50   0.14   60.6    84   16.3   305    22.9   1013.2    0.00 
 238   18:00   0.11   60.6    84   13.9   309    18.0   1013.2    0.00 
 238   18:10   0.08   60.5    85   13.7   309    18.6   1013.2    0.00 
 238   18:20   0.07   60.1    85   17.0   300    21.9   1013.2    0.00 
 238   18:30   0.03   59.7    86   18.5   303    23.2   1013.2    0.00 
 238   18:40   0.01   59.2    87   16.6   309    21.3   1013.2    0.00 
 238   18:50   0.00   59.0    88   15.4   305    20.2   1012.9    0.00 
 238   19:00   0.00   58.8    88   14.1   306    17.9   1012.9    0.00 
 238   19:10   0.00   58.6    89   13.5   303    17.7   1012.9    0.00 
 238   19:20   0.00   58.7    89   13.6   301    17.5   1012.9    0.00 
 238   19:30   0.00   58.7    89   13.9   298    17.1   1013.2    0.00 
 238   19:40   0.00   58.8    88   12.3   302    16.1   1013.2    0.00 
 238   19:50   0.00   58.9    88   13.9   305    18.3   1013.2    0.00 
 238   20:00   0.00   59.0    88   12.6   303    17.0   1013.2    0.00 
 238   20:10   0.00   58.9    88   12.6   296    15.8   1013.5    0.00 
 238   20:20   0.00   58.7    89    7.4   301    11.6   1013.5    0.00 
 238   20:30   0.00   58.5    89    7.7   296    10.0   1013.5    0.00 
 238   20:40   0.00   58.4    90    8.0   294    10.8   1013.5    0.00 
 238   20:50   0.00   58.3    90    7.4   299    11.5   1013.9    0.00 
 238   21:00   0.00   58.2    90    6.2   306    10.3   1013.9    0.00 
 238   21:10   0.00   57.8    90    4.5   305     6.5   1013.9    0.00 
 238   21:20   0.00   57.6    90    5.7   293     7.6   1013.9    0.00 
 238   21:30   0.00   57.2    90    5.1   304     6.6   1013.9    0.00 
 238   21:40   0.00   56.6    91    3.2   315     5.5   1013.9    0.00 
 238   21:50   0.00   56.3    91    3.1   316     5.0   1013.9    0.00 
 238   22:00   0.00   56.3    92    2.6   313     3.3   1013.5    0.00 
 238   22:10   0.00   55.9    92    2.8   307     3.5   1013.5    0.00 
 238   22:20   0.00   55.5    92    3.6   304     4.3   1013.5    0.00 
 238   22:30   0.00   54.6    92    2.9   317     3.9   1013.5    0.00 
 238   22:40   0.00   55.7    93    3.1   317     3.9   1013.5    0.00 
 238   22:50   0.00   55.1    93    3.7   308     4.9   1013.5    0.00 
 238   23:00   0.00   55.1    94    1.7   334     3.1   1013.5    0.00 
 238   23:10   0.00   55.9    94    1.1    24     1.8   1013.5    0.00 
 238   23:20   0.00   55.8    93    0.0     0     0.0   1013.5    0.00 
 238   23:30   0.00   55.6    93    0.0     0     0.0   1013.5    0.00 
 238   23:40   0.00   54.0    93    0.0     0     0.0   1013.5    0.00 
 238   23:50   0.00   53.9    94    0.0     0     0.0   1013.5    0.00 
 239    0:00   0.00   53.9    94    0.0     0     0.0   1013.5    0.00 
 239    0:10   0.00   54.0    94    0.1   136     0.9   1013.5    0.00 
 239    0:20   0.00   54.7    94    0.0     0     0.0   1013.5    0.00 
 239    0:30   0.00   54.7    94    0.7   283     3.2   1013.5    0.00 
 239    0:40   0.00   53.1    94    2.5   310     3.5   1013.5    0.00 
 239    0:50   0.00   53.5    95    4.2   304     5.0   1013.5    0.00 
 239    1:00   0.00   53.1    94    4.2   303     5.5   1013.5    0.00 
 239    1:10   0.00   53.9    95    3.3   297     4.0   1013.5    0.00 
 239    1:20   0.00   54.5    95    0.7   322     2.2   1013.5    0.00 
 239    1:30   0.00   55.3    95    0.5    43     1.2   1013.5    0.00 
 239    1:40   0.00   54.6    94    1.6   100     2.8   1013.2    0.00 
 239    1:50   0.00   53.9    95    0.6   117     2.2   1013.5    0.00 
 239    2:00   0.00   54.1    95    0.4   157     1.2   1013.5    0.00 
 239    2:10   0.00   53.7    94    0.9   182     1.2   1013.5    0.00 
 239    2:20   0.00   52.7    95    1.3   241     2.3   1013.5    0.00 
 239    2:30   0.00   52.9    95    0.2   268     0.9   1013.2    0.00 
 239    2:40   0.00   54.7    95    0.0     0     0.0   1013.5    0.00 
 239    2:50   0.00   53.5    95    0.0    38     0.4   1013.5    0.00 
 239    3:00   0.00   54.9    95    0.3   225     0.9   1013.5    0.00 
 239    3:10   0.00   53.2    95    1.1   297     2.3   1013.5    0.00 
 239    3:20   0.00   53.2    96    0.3    63     1.0   1013.5    0.00 
 239    3:30   0.00   54.2    96    0.6   122     1.2   1013.5    0.00 
 239    3:40   0.00   53.9    95    1.4   143     1.9   1013.9    0.00 
 239    3:50   0.00   53.7    95    1.9   135     2.7   1013.9    0.00 
 239    4:00   0.00   53.2    95    2.4   135     3.1   1013.5    0.00 
 239    4:10   0.00   53.9    96    2.4   143     3.1   1013.5    0.00 
 239    4:20   0.00   53.9    96    2.7   138     3.5   1013.5    0.00 
 239    4:30   0.00   54.2    95    2.4   151     3.6   1013.5    0.00 
 239    4:40   0.00   54.2    96    2.3   158     3.4   1013.9    0.00 
 239    4:50   0.00   54.6    96    2.3   150     3.4   1013.9    0.00 
 239    5:00   0.00   54.5    95    2.1   124     3.4   1014.2    0.00 
 239    5:10   0.00   54.0    96    2.9   129     3.6   1013.9    0.00 
 239    5:20   0.00   54.3    96    2.0   138     3.1   1014.2    0.00 
 239    5:30   0.00   53.8    95    1.6   119     2.6   1013.9    0.00 
 239    5:40   0.00   54.0    96    1.6   118     2.4   1013.9    0.00 
 239    5:50   0.00   54.3    96    2.7   156     3.7   1013.9    0.00 
 239    6:00   0.01   54.1    96    3.0   152     4.3   1014.2    0.00 
 239    6:10   0.02   54.4    96    3.4   122     5.3   1014.2    0.00 
 239    6:20   0.04   55.8    96    2.2   117     4.6   1014.2    0.00 
 239    6:30   0.08   57.0    96    4.1   130     7.2   1014.6    0.00 
 239    6:40   0.11   57.6    95    3.6   119     8.0   1014.6    0.00 
 239    6:50   0.14   58.2    95    2.9   112     5.7   1014.9    0.00 
 239    7:00   0.16   58.9    94    3.8   114     5.9   1014.9    0.00 
 239    7:10   0.19   59.5    92    5.6   128     8.6   1014.9    0.00 
 239    7:20   0.22   60.0    90    4.7   128     6.9   1015.2    0.00 
 239    7:30   0.25   60.7    88    4.3   132     6.0   1015.6    0.00 
 239    7:40   0.29   61.3    86    3.9   132     5.1   1015.6    0.00 
 239    7:50   0.32   61.6    85    3.9   128     5.1   1015.2    0.00 
 239    8:00   0.35   62.0    83    3.3   132     4.7   1015.2    0.00 
 239    8:10   0.38   62.1    83    4.3   133     6.4   1015.2    0.00 
 239    8:20   0.41   62.5    83    5.2   135     7.5   1015.2    0.00 
 239    8:30   0.44   62.9    82    5.3   133     6.2   1015.2    0.00 
 239    8:40   0.47   63.4    82    4.9   139     6.2   1015.2    0.00 
 239    8:50   0.50   64.1    79    4.9   132     6.1   1015.6    0.00 
 239    9:00   0.51   64.5    78    3.9   133     5.1   1015.6    0.00 
 239    9:10   0.55   64.8    77    4.3   135     5.3   1015.6    0.00 
 239    9:20   0.58   65.8    74    3.1   130     5.0   1015.6    0.00 
 239    9:30   0.60   67.5    70    2.8   125     4.8   1015.6    0.00 
 239    9:40   0.63   68.6    68    3.6   113     7.7   1015.6    0.00 
 239    9:50   0.65   67.6    71    6.5   280     9.0   1015.6    0.00 
 239   10:00   0.67   66.7    72    6.3   283     8.7   1015.6    0.00 
 239   10:10   0.69   66.1    72    7.3   280     9.3   1015.6    0.00 
 239   10:20   0.71   66.8    69    6.8   271     8.7   1015.6    0.00 
 239   10:30   0.73   67.3    64    6.5   266     9.0   1015.6    0.00 
 239   10:40   0.75   68.9    60    7.3   273     9.6   1015.6    0.00 
 239   10:50   0.76   68.1    65    7.6   286    10.8   1015.6    0.00 
 239   11:00   0.76   68.1    69    8.5   299    11.8   1015.6    0.00 
 239   11:10   0.79   67.2    69    9.8   294    13.2   1015.9    0.00 
 239   11:20   0.79   66.6    71   10.0   301    13.2   1015.9    0.00 
 239   11:30   0.80   65.6    72   10.1   303    12.4   1015.6    0.00 
 239   11:40   0.82   66.1    71    9.7   297    13.4   1015.6    0.00 
 239   11:50   0.82   67.2    68   10.4   289    13.7   1015.6    0.00 
 239   12:00   0.81   66.4    69   11.5   308    15.8   1015.6    0.00 
 239   12:10   0.82   65.0    73   13.2   305    16.6   1015.6    0.00 
 239   12:20   0.83   64.4    74   14.8   303    18.0   1015.6    0.00 
 239   12:30   0.83   64.7    74   15.1   302    19.1   1015.6    0.00 
 239   12:40   0.74   64.3    75   15.1   304    19.2   1015.2    0.00 
 239   12:50   0.80   64.1    75   14.9   303    18.5   1015.2    0.00 
 239   13:00   0.80   64.3    75   16.6   301    21.6   1015.2    0.00 
 239   13:10   0.79   64.0    75   17.2   304    22.9   1015.2    0.00 
 239   13:20   0.81   64.3    74   17.6   305    23.3   1015.2    0.00 
 239   13:30   0.71   64.8    74   16.1   304    21.3   1015.2    0.00 
 239   13:40   0.69   64.6    75   16.3   303    20.4   1015.2    0.00 
 239   13:50   0.71   64.9    74   15.7   303    19.8   1014.9    0.00 
 239   14:00   0.66   65.2    73   15.7   303    19.5   1014.9    0.00 
 239   14:10   0.65   65.2    73   15.2   305    20.2   1014.9    0.00 
 239   14:20   0.66   66.6    69   16.0   304    21.3   1014.9    0.00 
 239   14:30   0.72   66.3    70   17.4   303    21.9   1014.9    0.00 
 239   14:40   0.68   66.2    71   17.1   305    21.9   1014.9    0.00 
 239   14:50   0.62   65.5    72   19.0   305    23.2   1014.6    0.00 
 239   15:00   0.41   65.5    71   17.9   297    23.5   1014.6    0.00 

Return to Bodega Marine Reserve graphs page.


Western Regional Climate Center,wrcc@dri.edu